Decatur, IL (62521)

4:35 AM CDT on May 04, 2015 (GMT -0500)
Sandhill Dr. | | Change Station
CLOSE
Current Station
Personal Weather Station
Location: Decatur, IL
Elevation: 676 ft
Nearby Weather Stations

Elev 676 ft 39.82 °N, 88.92 °W | Updated 3 seconds ago

Mostly Cloudy
Mostly Cloudy
67.1 °F
Feels Like 67.1 °F
N
7.9
Wind Variable Wind from SW
Gusts 8.3 mph

Today
High -- | Low -- °F
--% Chance of Precip.
Yesterday
High -- | Low -- °F
Precip. -- in
5:52 AM 7:52 PM
Full, 100% visible
Pressure 29.98 in
Visibility 10.0 miles
Clouds Few 7000 ft
Mostly Cloudy 11000 ft
Dew Point 56 °F
Humidity 68%
Rainfall 0.00 in
Snow Depth Not available.
UV 0 out of 12
Pollen 10.20 out of 12
Air Quality Not available.
Flu Activity Local Activity
METAR KDEC 040854Z AUTO 19011KT 10SM FEW070 BKN110 19/11 A2999 RMK AO2 SLP151 60000 T01940106 58004 TSNO

More Conditions Fewer Conditions

Pressure 29.98 in
Visibility 10.0 miles
Clouds Few 7000 ft
Mostly Cloudy 11000 ft
Dew Point 56 °F
Humidity 68%
Rainfall 0.00 in
Snow Depth Not available.
UV 0 out of 12
Pollen 10.20 out of 12
Air Quality Not available.
Flu Activity Local Activity
METAR KDEC 040854Z AUTO 19011KT 10SM FEW070 BKN110 19/11 A2999 RMK AO2 SLP151 60000 T01940106 58004 TSNO

More Conditions Fewer Conditions

Nepal has a long way to go to dig out and rebuild from a devastating earthquake. We have teamed up with several charities and organizations to make contributing to the relief effort as easy as possible.
How you can help: Portlight Strategies | Red Cross

10-Day Weather Forecast

Almanac

Astronomy

May. 04, 2015 Rise Set
Actual Time
Civil Twilight
Nautical Twilight
Astronomical Twilight
Moon
Length of Visible Light
Length of Day
Tomorrow will be .
, % of the Moon is Illuminated

Today's Extremes

State Highs State Lows

Community

WunderPhotos

Upload Photos

1,818,550 photos uploaded!

WunderBlogs® & News

Nearby

Air Quality

  Air Quality AQ Index Pollutant
Not available.

Snow Depth

Station Depth Elevation

Earthquake Activity

City Distance Mag. Time & Date
Minimum magnitude displayed is 2.5.

Coastal Water Temperatures

Place Temperature

Stations

Nearby Weather Stations

Station Location Temp. Windchill Dew Point Humidity Wind Precip. Elev Updated Type